Time,TemperatureF,DewpointF,PressureIn,WindDirection,WindDirectionDegrees,WindSpeedMPH,WindSpeedGustMPH,Humidity,HourlyPrecipIn,Conditions,Clouds,dailyrainin,SoftwareType,DateUTC
2013-04-16 00:00:00,1.5,-5.1,30.63,NNW,338,4.0,5.0,73,0.00,,---,0.00,VWS V14.01,2013-04-16 08:00:00,
2013-04-16 00:05:00,0.3,-6.3,30.63,North,0,3.0,5.0,73,0.00,,---,0.00,VWS V14.01,2013-04-16 08:05:00,
2013-04-16 00:10:00,-0.8,-7.1,30.63,NNE,22,3.0,4.0,74,0.00,,---,0.00,VWS V14.01,2013-04-16 08:10:00,
2013-04-16 00:15:00,-1.3,-7.3,30.63,North,0,2.0,4.0,75,0.00,,---,0.00,VWS V14.01,2013-04-16 08:15:00,
2013-04-16 00:20:00,-1.3,-7.0,30.63,NW,315,3.0,4.0,76,0.00,,---,0.00,VWS V14.01,2013-04-16 08:20:00,
2013-04-16 00:25:00,-0.5,-5.7,30.63,NW,315,3.0,5.0,78,0.00,,---,0.00,VWS V14.01,2013-04-16 08:25:00,
2013-04-16 00:30:00,0.8,-4.7,30.62,NNW,338,3.0,5.0,77,0.00,,---,0.00,VWS V14.01,2013-04-16 08:30:00,
2013-04-16 00:35:00,1.3,-4.8,30.62,NW,315,3.0,4.0,75,0.00,,---,0.00,VWS V14.01,2013-04-16 08:35:00,
2013-04-16 00:40:00,1.0,-5.3,30.62,NNW,338,3.0,4.0,74,0.00,,---,0.00,VWS V14.01,2013-04-16 08:40:00,
2013-04-16 00:45:00,0.5,-5.8,30.62,NNW,338,2.0,3.0,74,0.00,,---,0.00,VWS V14.01,2013-04-16 08:45:00,
2013-04-16 00:50:00,0.3,-6.0,30.62,NNW,338,3.0,5.0,74,0.00,,---,0.00,VWS V14.01,2013-04-16 08:50:00,
2013-04-16 00:55:00,0.5,-5.8,30.62,NNW,338,4.0,6.0,74,0.00,,---,0.00,VWS V14.01,2013-04-16 08:55:00,
2013-04-16 01:00:00,-0.1,-6.7,30.62,NNW,338,2.0,4.0,73,0.00,,---,0.00,VWS V14.01,2013-04-16 09:00:00,
2013-04-16 01:05:00,-0.9,-7.2,30.62,NNW,338,3.0,4.0,74,0.00,,---,0.00,VWS V14.01,2013-04-16 09:05:00,
2013-04-16 01:10:00,-1.0,-7.0,30.62,NW,315,3.0,4.0,75,0.00,,---,0.00,VWS V14.01,2013-04-16 09:10:00,
2013-04-16 01:15:00,-0.8,-6.5,30.62,NW,315,2.0,3.0,76,0.00,,---,0.00,VWS V14.01,2013-04-16 09:15:00,
2013-04-16 01:20:00,-1.0,-7.3,30.62,NE,45,2.0,3.0,74,0.00,,---,0.00,VWS V14.01,2013-04-16 09:20:00,
2013-04-16 01:25:00,-1.9,-8.4,30.62,NE,45,1.0,2.0,73,0.00,,---,0.00,VWS V14.01,2013-04-16 09:25:00,
2013-04-16 01:30:00,-3.0,-9.5,30.62,NE,45,1.0,2.0,73,0.00,,---,0.00,VWS V14.01,2013-04-16 09:30:00,
2013-04-16 01:35:00,-3.5,-9.1,30.62,WNW,292,2.0,3.0,76,0.00,,---,0.00,VWS V14.01,2013-04-16 09:35:00,
2013-04-16 01:40:00,-3.5,-9.1,30.62,WNW,292,1.0,2.0,76,0.00,,---,0.00,VWS V14.01,2013-04-16 09:40:00,
2013-04-16 01:45:00,-3.1,-8.0,30.62,NW,315,2.0,3.0,79,0.00,,---,0.00,VWS V14.01,2013-04-16 09:45:00,
2013-04-16 01:50:00,-4.0,-10.2,30.62,NW,315,1.0,3.0,74,0.00,,---,0.00,VWS V14.01,2013-04-16 09:50:00,
2013-04-16 01:55:00,-4.6,-10.0,30.62,North,0,1.0,2.0,77,0.00,,---,0.00,VWS V14.01,2013-04-16 09:55:00,
2013-04-16 02:00:00,-5.4,-10.7,30.61,NNW,338,2.0,3.0,77,0.00,,---,0.00,VWS V14.01,2013-04-16 10:00:00,
2013-04-16 02:05:00,-5.6,-10.7,30.61,NW,315,2.0,3.0,78,0.00,,---,0.00,VWS V14.01,2013-04-16 10:05:00,
2013-04-16 02:10:00,-5.4,-10.5,30.61,NNW,338,3.0,4.0,78,0.00,,---,0.00,VWS V14.01,2013-04-16 10:10:00,
2013-04-16 02:15:00,-6.3,-11.6,30.61,NNE,22,3.0,4.0,77,0.00,,---,0.00,VWS V14.01,2013-04-16 10:15:00,
2013-04-16 02:20:00,-5.7,-10.5,30.61,NNW,338,3.0,4.0,79,0.00,,---,0.00,VWS V14.01,2013-04-16 10:20:00,
2013-04-16 02:25:00,-6.0,-11.1,30.61,NNE,22,2.0,4.0,78,0.00,,---,0.00,VWS V14.01,2013-04-16 10:25:00,
2013-04-16 02:30:00,-6.0,-10.8,30.60,North,0,2.0,3.0,79,0.00,,---,0.00,VWS V14.01,2013-04-16 10:30:00,
2013-04-16 02:35:00,-5.9,-10.7,30.60,North,0,1.0,2.0,79,0.00,,---,0.00,VWS V14.01,2013-04-16 10:35:00,
2013-04-16 02:40:00,-5.8,-10.6,30.60,North,0,1.0,2.0,79,0.00,,---,0.00,VWS V14.01,2013-04-16 10:40:00,
2013-04-16 02:45:00,-6.1,-11.2,30.60,North,0,1.0,2.0,78,0.00,,---,0.00,VWS V14.01,2013-04-16 10:45:00,
2013-04-16 02:50:00,-6.8,-11.8,30.60,North,0,2.0,3.0,78,0.00,,---,0.00,VWS V14.01,2013-04-16 10:50:00,
2013-04-16 02:55:00,-7.2,-12.2,30.60,NNE,22,2.0,3.0,78,0.00,,---,0.00,VWS V14.01,2013-04-16 10:55:00,
2013-04-16 03:00:00,-5.1,-9.2,30.60,NNE,22,0.0,1.0,82,0.00,,---,0.00,VWS V14.01,2013-04-16 11:00:00,
2013-04-16 03:05:00,-6.9,-11.4,30.60,NNW,338,2.0,4.0,80,0.00,,---,0.00,VWS V14.01,2013-04-16 11:05:00,
2013-04-16 03:10:00,-7.5,-12.8,30.60,North,0,2.0,2.0,77,0.00,,---,0.00,VWS V14.01,2013-04-16 11:10:00,
2013-04-16 03:15:00,-7.8,-12.6,30.60,NW,315,2.0,3.0,79,0.00,,---,0.00,VWS V14.01,2013-04-16 11:15:00,
2013-04-16 03:20:00,-7.7,-12.5,30.59,NNW,338,2.0,3.0,79,0.00,,---,0.00,VWS V14.01,2013-04-16 11:20:00,
2013-04-16 03:25:00,-7.5,-12.3,30.59,NNW,338,2.0,3.0,79,0.00,,---,0.00,VWS V14.01,2013-04-16 11:25:00,
2013-04-16 03:30:00,-7.7,-12.5,30.59,NNE,22,2.0,2.0,79,0.00,,---,0.00,VWS V14.01,2013-04-16 11:30:00,
2013-04-16 03:35:00,-7.9,-12.7,30.59,NNE,22,1.0,2.0,79,0.00,,---,0.00,VWS V14.01,2013-04-16 11:35:00,
2013-04-16 03:40:00,-8.1,-12.9,30.59,NNE,22,1.0,2.0,79,0.00,,---,0.00,VWS V14.01,2013-04-16 11:40:00,
2013-04-16 03:45:00,-7.1,-11.1,30.59,NNE,22,2.0,3.0,82,0.00,,---,0.00,VWS V14.01,2013-04-16 11:45:00,
2013-04-16 03:50:00,-6.4,-10.7,30.59,NNE,22,2.0,3.0,81,0.00,,---,0.00,VWS V14.01,2013-04-16 11:50:00,
2013-04-16 03:55:00,-5.7,-10.0,30.58,NNW,338,2.0,3.0,81,0.00,,---,0.00,VWS V14.01,2013-04-16 11:55:00,
2013-04-16 04:00:00,-5.4,-10.2,30.58,NNW,338,1.0,3.0,79,0.00,,---,0.00,VWS V14.01,2013-04-16 12:00:00,
2013-04-16 04:05:00,-5.5,-10.3,30.58,NNW,338,1.0,2.0,79,0.00,,---,0.00,VWS V14.01,2013-04-16 12:05:00,
2013-04-16 04:10:00,-5.4,-10.2,30.58,NNW,338,2.0,2.0,79,0.00,,---,0.00,VWS V14.01,2013-04-16 12:10:00,
2013-04-16 04:15:00,-5.6,-10.4,30.58,North,0,2.0,2.0,79,0.00,,---,0.00,VWS V14.01,2013-04-16 12:15:00,
2013-04-16 04:20:00,-5.9,-10.7,30.58,North,0,2.0,3.0,79,0.00,,---,0.00,VWS V14.01,2013-04-16 12:20:00,
2013-04-16 04:25:00,-5.8,-10.6,30.58,NE,45,3.0,4.0,79,0.00,,---,0.00,VWS V14.01,2013-04-16 12:25:00,
2013-04-16 04:30:00,-6.1,-11.2,30.58,NNE,22,2.0,3.0,78,0.00,,---,0.00,VWS V14.01,2013-04-16 12:30:00,
2013-04-16 04:35:00,-6.1,-10.9,30.58,NNW,338,2.0,3.0,79,0.00,,---,0.00,VWS V14.01,2013-04-16 12:35:00,
2013-04-16 04:40:00,-6.5,-11.8,30.58,NNW,338,2.0,3.0,77,0.00,,---,0.00,VWS V14.01,2013-04-16 12:40:00,
2013-04-16 04:45:00,-7.0,-12.3,30.58,NNW,338,2.0,3.0,77,0.00,,---,0.00,VWS V14.01,2013-04-16 12:45:00,
2013-04-16 04:50:00,-7.3,-12.3,30.58,NNW,338,2.0,3.0,78,0.00,,---,0.00,VWS V14.01,2013-04-16 12:50:00,
2013-04-16 04:55:00,-7.7,-12.7,30.58,NNW,338,2.0,3.0,78,0.00,,---,0.00,VWS V14.01,2013-04-16 12:55:00,
2013-04-16 05:00:00,-7.9,-12.9,30.58,North,0,1.0,3.0,78,0.00,,---,0.00,VWS V14.01,2013-04-16 13:00:00,
2013-04-16 05:05:00,-7.6,-12.1,30.58,North,0,2.0,3.0,80,0.00,,---,0.00,VWS V14.01,2013-04-16 13:05:00,
2013-04-16 05:10:00,-7.3,-12.1,30.58,NNW,338,2.0,3.0,79,0.00,,---,0.00,VWS V14.01,2013-04-16 13:10:00,
2013-04-16 05:15:00,-7.6,-12.6,30.58,North,0,2.0,3.0,78,0.00,,---,0.00,VWS V14.01,2013-04-16 13:15:00,
2013-04-16 05:20:00,-8.0,-13.0,30.58,North,0,2.0,3.0,78,0.00,,---,0.00,VWS V14.01,2013-04-16 13:20:00,
2013-04-16 05:25:00,-8.0,-12.8,30.57,North,0,1.0,2.0,79,0.00,,---,0.00,VWS V14.01,2013-04-16 13:25:00,
2013-04-16 05:30:00,-7.6,-12.4,30.57,NNW,338,2.0,3.0,79,0.00,,---,0.00,VWS V14.01,2013-04-16 13:30:00,
2013-04-16 05:35:00,-7.7,-12.7,30.57,NNW,338,2.0,3.0,78,0.00,,---,0.00,VWS V14.01,2013-04-16 13:35:00,
2013-04-16 05:40:00,-7.7,-12.2,30.57,NW,315,0.0,2.0,80,0.00,,---,0.00,VWS V14.01,2013-04-16 13:40:00,
2013-04-16 05:45:00,-7.9,-12.2,30.57,NW,315,0.0,0.0,81,0.00,,---,0.00,VWS V14.01,2013-04-16 13:45:00,
2013-04-16 05:50:00,-7.1,-10.9,30.57,NNE,22,1.0,3.0,83,0.00,,---,0.00,VWS V14.01,2013-04-16 13:50:00,
2013-04-16 05:55:00,-6.8,-10.6,30.57,NNE,22,1.0,3.0,83,0.00,,---,0.00,VWS V14.01,2013-04-16 13:55:00,
2013-04-16 06:00:00,-6.9,-10.9,30.57,NNE,22,2.0,4.0,82,0.00,,---,0.00,VWS V14.01,2013-04-16 14:00:00,
2013-04-16 06:05:00,-7.1,-11.4,30.57,NNE,22,2.0,4.0,81,0.00,,---,0.00,VWS V14.01,2013-04-16 14:05:00,
2013-04-16 06:10:00,-7.5,-13.0,30.56,NNW,338,1.0,3.0,76,0.00,,---,0.00,VWS V14.01,2013-04-16 14:10:00,
2013-04-16 06:15:00,-8.0,-12.3,30.56,NNE,22,2.0,3.0,81,0.00,,---,0.00,VWS V14.01,2013-04-16 14:15:00,
2013-04-16 06:20:00,-8.4,-12.6,30.56,NNE,22,2.0,4.0,81,0.00,,---,0.00,VWS V14.01,2013-04-16 14:20:00,
2013-04-16 06:25:00,-8.2,-12.5,30.56,NNE,22,3.0,4.0,81,0.00,,---,0.00,VWS V14.01,2013-04-16 14:25:00,
2013-04-16 06:30:00,-8.0,-12.0,30.56,NNE,22,2.0,4.0,82,0.00,,---,0.00,VWS V14.01,2013-04-16 14:30:00,
2013-04-16 06:35:00,-8.0,-12.0,30.56,NNE,22,0.0,2.0,82,0.00,,---,0.00,VWS V14.01,2013-04-16 14:35:00,
2013-04-16 06:40:00,-7.5,-11.3,30.56,NNE,22,0.0,4.0,83,0.00,,---,0.00,VWS V14.01,2013-04-16 14:40:00,
2013-04-16 06:45:00,-4.9,-7.8,30.56,NNE,22,1.0,3.0,87,0.00,,---,0.00,VWS V14.01,2013-04-16 14:45:00,
2013-04-16 06:50:00,-3.0,-6.4,30.55,NNE,22,2.0,3.0,85,0.00,,---,0.00,VWS V14.01,2013-04-16 14:50:00,
2013-04-16 06:55:00,-3.2,-7.8,30.55,NNE,22,2.0,4.0,80,0.00,,---,0.00,VWS V14.01,2013-04-16 14:55:00,
2013-04-16 07:00:00,-4.0,-9.1,30.55,NNE,22,1.0,2.0,78,0.00,,---,0.00,VWS V14.01,2013-04-16 15:00:00,
2013-04-16 07:05:00,-4.3,-9.4,30.56,NNE,22,0.0,0.0,78,0.00,,---,0.00,VWS V14.01,2013-04-16 15:05:00,
2013-04-16 07:10:00,-3.2,-9.1,30.55,NNW,338,3.0,4.0,75,0.00,,---,0.00,VWS V14.01,2013-04-16 15:10:00,
2013-04-16 07:15:00,-3.1,-9.0,30.55,NNW,338,2.0,3.0,75,0.00,,---,0.00,VWS V14.01,2013-04-16 15:15:00,
2013-04-16 07:20:00,-3.2,-9.1,30.55,NW,315,2.0,4.0,75,0.00,,---,0.00,VWS V14.01,2013-04-16 15:20:00,
2013-04-16 07:25:00,-5.0,-9.6,30.55,NNW,338,2.0,4.0,80,0.00,,---,0.00,VWS V14.01,2013-04-16 15:25:00,
2013-04-16 07:30:00,-5.0,-9.3,30.55,NNE,22,0.0,2.0,81,0.00,,---,0.00,VWS V14.01,2013-04-16 15:30:00,
2013-04-16 07:35:00,-5.0,-9.6,30.55,NNE,22,1.0,3.0,80,0.00,,---,0.00,VWS V14.01,2013-04-16 15:35:00,
2013-04-16 07:40:00,-5.4,-10.2,30.55,NNE,22,1.0,2.0,79,0.00,,---,0.00,VWS V14.01,2013-04-16 15:40:00,
2013-04-16 07:45:00,-5.5,-10.1,30.55,NNE,22,2.0,4.0,80,0.00,,---,0.00,VWS V14.01,2013-04-16 15:45:00,
2013-04-16 07:50:00,-5.4,-10.0,30.54,NNE,22,2.0,3.0,80,0.00,,---,0.00,VWS V14.01,2013-04-16 15:50:00,
2013-04-16 07:55:00,-5.3,-9.6,30.54,NNE,22,1.0,3.0,81,0.00,,---,0.00,VWS V14.01,2013-04-16 15:55:00,
2013-04-16 08:00:00,-5.3,-9.9,30.55,NNE,22,1.0,3.0,80,0.00,,---,0.00,VWS V14.01,2013-04-16 16:00:00,
2013-04-16 08:05:00,-5.4,-10.0,30.55,NNE,22,1.0,3.0,80,0.00,,---,0.00,VWS V14.01,2013-04-16 16:05:00,
2013-04-16 08:10:00,-5.6,-10.2,30.54,NNE,22,2.0,4.0,80,0.00,,---,0.00,VWS V14.01,2013-04-16 16:10:00,
2013-04-16 08:15:00,-6.0,-10.8,30.54,NNE,22,1.0,3.0,79,0.00,,---,0.00,VWS V14.01,2013-04-16 16:15:00,
2013-04-16 08:20:00,-6.2,-11.0,30.54,NNE,22,1.0,3.0,79,0.00,,---,0.00,VWS V14.01,2013-04-16 16:20:00,
2013-04-16 08:25:00,-6.2,-10.8,30.54,NNE,22,1.0,3.0,80,0.00,,---,0.00,VWS V14.01,2013-04-16 16:25:00,
2013-04-16 08:30:00,-6.1,-10.6,30.54,NNE,22,0.0,2.0,80,0.00,,---,0.00,VWS V14.01,2013-04-16 16:30:00,
2013-04-16 08:35:00,-6.1,-10.6,30.54,NNE,22,1.0,3.0,80,0.00,,---,0.00,VWS V14.01,2013-04-16 16:35:00,
2013-04-16 08:40:00,-6.1,-10.6,30.54,NNE,22,1.0,2.0,80,0.00,,---,0.00,VWS V14.01,2013-04-16 16:40:00,
2013-04-16 08:45:00,-5.7,-10.0,30.54,NNE,22,0.0,3.0,81,0.00,,---,0.00,VWS V14.01,2013-04-16 16:45:00,
2013-04-16 08:50:00,-4.7,-9.0,30.54,NNE,22,1.0,3.0,81,0.00,,---,0.00,VWS V14.01,2013-04-16 16:50:00,
2013-04-16 08:55:00,-4.0,-8.9,30.53,NNE,22,1.0,2.0,79,0.00,,---,0.00,VWS V14.01,2013-04-16 16:55:00,
2013-04-16 09:00:00,-4.1,-9.5,30.53,NNE,22,1.0,3.0,77,0.00,,---,0.00,VWS V14.01,2013-04-16 17:00:00,
2013-04-16 09:05:00,-4.2,-9.6,30.53,NNE,22,0.0,0.0,77,0.00,,---,0.00,VWS V14.01,2013-04-16 17:05:00,
2013-04-16 09:10:00,-3.9,-9.3,30.53,NNE,22,1.0,3.0,77,0.00,,---,0.00,VWS V14.01,2013-04-16 17:10:00,
2013-04-16 09:15:00,-2.9,-8.0,30.53,NNE,22,0.0,3.0,78,0.00,,---,0.00,VWS V14.01,2013-04-16 17:15:00,
2013-04-16 09:20:00,-1.7,-7.1,30.53,NNE,22,1.0,3.0,77,0.00,,---,0.00,VWS V14.01,2013-04-16 17:20:00,
2013-04-16 09:25:00,-1.0,-7.0,30.53,NNE,22,2.0,3.0,75,0.00,,---,0.00,VWS V14.01,2013-04-16 17:25:00,
2013-04-16 09:30:00,-0.7,-7.0,30.53,NNE,22,0.0,1.0,74,0.00,,---,0.00,VWS V14.01,2013-04-16 17:30:00,
2013-04-16 09:35:00,-0.2,-7.1,30.52,NNE,22,0.0,0.0,72,0.00,,---,0.00,VWS V14.01,2013-04-16 17:35:00,
2013-04-16 09:40:00,0.4,-6.5,30.53,NNE,22,0.0,2.0,72,0.00,,---,0.00,VWS V14.01,2013-04-16 17:40:00,
2013-04-16 09:45:00,1.3,-5.9,30.53,NNE,22,0.0,3.0,71,0.00,,---,0.00,VWS V14.01,2013-04-16 17:45:00,
2013-04-16 09:50:00,1.9,-5.6,30.52,NNE,22,0.0,0.0,70,0.00,,---,0.00,VWS V14.01,2013-04-16 17:50:00,
2013-04-16 09:55:00,2.4,-5.4,30.52,NNE,22,0.0,0.0,69,0.00,,---,0.00,VWS V14.01,2013-04-16 17:55:00,
2013-04-16 10:00:00,3.1,-4.8,30.52,NNE,22,0.0,0.0,69,0.00,,---,0.00,VWS V14.01,2013-04-16 18:00:00,
2013-04-16 10:05:00,4.7,-2.9,30.52,NNE,22,0.0,0.0,70,0.00,,---,0.00,VWS V14.01,2013-04-16 18:05:00,
2013-04-16 10:10:00,6.1,-2.8,30.52,NNE,22,0.0,0.0,66,0.00,,---,0.00,VWS V14.01,2013-04-16 18:10:00,
2013-04-16 10:15:00,5.8,-4.1,30.52,NNE,22,0.0,2.0,63,0.00,,---,0.00,VWS V14.01,2013-04-16 18:15:00,
2013-04-16 10:20:00,5.8,-3.7,30.52,NNE,22,0.0,0.0,64,0.00,,---,0.00,VWS V14.01,2013-04-16 18:20:00,
2013-04-16 10:25:00,6.7,-3.2,30.52,NNE,22,0.0,0.0,63,0.00,,---,0.00,VWS V14.01,2013-04-16 18:25:00,
2013-04-16 10:30:00,7.8,-2.2,30.52,NNE,22,0.0,0.0,63,0.00,,---,0.00,VWS V14.01,2013-04-16 18:30:00,
2013-04-16 10:35:00,8.7,-1.6,30.52,NNE,22,0.0,0.0,62,0.00,,---,0.00,VWS V14.01,2013-04-16 18:35:00,
2013-04-16 10:40:00,9.5,-1.6,30.52,NNE,22,0.0,0.0,60,0.00,,---,0.00,VWS V14.01,2013-04-16 18:40:00,
2013-04-16 10:45:00,9.8,-1.6,30.52,NNE,22,0.0,2.0,59,0.00,,---,0.00,VWS V14.01,2013-04-16 18:45:00,
2013-04-16 10:50:00,10.3,-1.2,30.52,NNE,22,0.0,1.0,59,0.00,,---,0.00,VWS V14.01,2013-04-16 18:50:00,
2013-04-16 10:55:00,10.7,-1.2,30.52,NNE,22,0.0,0.0,58,0.00,,---,0.00,VWS V14.01,2013-04-16 18:55:00,
2013-04-16 11:00:00,10.8,-1.4,30.52,NNE,22,0.0,2.0,57,0.00,,---,0.00,VWS V14.01,2013-04-16 19:00:00,
2013-04-16 11:05:00,11.1,-1.1,30.52,NNE,22,0.0,0.0,57,0.00,,---,0.00,VWS V14.01,2013-04-16 19:05:00,
2013-04-16 11:10:00,12.8,0.4,30.52,NNE,22,0.0,0.0,57,0.00,,---,0.00,VWS V14.01,2013-04-16 19:10:00,
2013-04-16 11:15:00,13.5,-0.4,30.52,NNE,22,0.0,2.0,53,0.00,,---,0.00,VWS V14.01,2013-04-16 19:15:00,
2013-04-16 11:20:00,13.0,-0.5,30.52,NNE,22,0.0,2.0,54,0.00,,---,0.00,VWS V14.01,2013-04-16 19:20:00,
2013-04-16 11:25:00,12.7,-1.2,30.52,NNE,22,0.0,1.0,53,0.00,,---,0.00,VWS V14.01,2013-04-16 19:25:00,
2013-04-16 11:30:00,12.7,-0.8,30.51,NNE,22,0.0,2.0,54,0.00,,---,0.00,VWS V14.01,2013-04-16 19:30:00,
2013-04-16 11:35:00,12.8,-0.3,30.51,NNE,22,0.0,2.0,55,0.00,,---,0.00,VWS V14.01,2013-04-16 19:35:00,
2013-04-16 11:40:00,13.4,0.3,30.51,NNE,22,0.0,1.0,55,0.00,,---,0.00,VWS V14.01,2013-04-16 19:40:00,
2013-04-16 11:45:00,13.9,0.3,30.51,NNE,22,0.0,2.0,54,0.00,,---,0.00,VWS V14.01,2013-04-16 19:45:00,
2013-04-16 11:50:00,14.2,0.6,30.51,NNE,22,1.0,3.0,54,0.00,,---,0.00,VWS V14.01,2013-04-16 19:50:00,
2013-04-16 11:55:00,14.6,1.0,30.51,NNE,22,0.0,2.0,54,0.00,,---,0.00,VWS V14.01,2013-04-16 19:55:00,
2013-04-16 12:00:00,15.2,1.1,30.50,NNE,22,0.0,2.0,53,0.00,,---,0.00,VWS V14.01,2013-04-16 20:00:00,
2013-04-16 12:05:00,15.9,1.8,30.50,NNE,22,0.0,1.0,53,0.00,,---,0.00,VWS V14.01,2013-04-16 20:05:00,
2013-04-16 12:10:00,16.5,2.0,30.50,NNE,22,0.0,0.0,52,0.00,,---,0.00,VWS V14.01,2013-04-16 20:10:00,
2013-04-16 12:15:00,17.1,2.1,30.50,NNE,22,0.0,1.0,51,0.00,,---,0.00,VWS V14.01,2013-04-16 20:15:00,
2013-04-16 12:20:00,17.3,2.3,30.50,NNE,22,0.0,2.0,51,0.00,,---,0.00,VWS V14.01,2013-04-16 20:20:00,
2013-04-16 12:25:00,17.4,2.0,30.50,NNE,22,1.0,2.0,50,0.00,,---,0.00,VWS V14.01,2013-04-16 20:25:00,
2013-04-16 12:30:00,17.2,2.2,30.49,NNE,22,0.0,2.0,51,0.00,,---,0.00,VWS V14.01,2013-04-16 20:30:00,
2013-04-16 12:35:00,17.8,3.2,30.50,NNE,22,0.0,1.0,52,0.00,,---,0.00,VWS V14.01,2013-04-16 20:35:00,
2013-04-16 12:40:00,18.7,3.2,30.49,NNE,22,0.0,0.0,50,0.00,,---,0.00,VWS V14.01,2013-04-16 20:40:00,
2013-04-16 12:45:00,19.4,2.9,30.49,NNE,22,0.0,3.0,48,0.00,,---,0.00,VWS V14.01,2013-04-16 20:45:00,
2013-04-16 12:50:00,19.3,2.8,30.49,NNE,22,1.0,3.0,48,0.00,,---,0.00,VWS V14.01,2013-04-16 20:50:00,
2013-04-16 12:55:00,18.9,2.9,30.49,NNE,22,2.0,4.0,49,0.00,,---,0.00,VWS V14.01,2013-04-16 20:55:00,
2013-04-16 13:00:00,19.2,3.2,30.49,NNE,22,0.0,2.0,49,0.00,,---,0.00,VWS V14.01,2013-04-16 21:00:00,
2013-04-16 13:05:00,20.1,3.1,30.48,NNE,22,0.0,0.0,47,0.00,,---,0.00,VWS V14.01,2013-04-16 21:05:00,
2013-04-16 13:10:00,20.0,3.0,30.48,NNE,22,0.0,0.0,47,0.00,,---,0.00,VWS V14.01,2013-04-16 21:10:00,
2013-04-16 13:15:00,20.2,3.7,30.48,NNE,22,0.0,1.0,48,0.00,,---,0.00,VWS V14.01,2013-04-16 21:15:00,
2013-04-16 13:20:00,20.4,3.4,30.48,NNE,22,0.0,1.0,47,0.00,,---,0.00,VWS V14.01,2013-04-16 21:20:00,
2013-04-16 13:25:00,20.6,3.1,30.48,NNE,22,0.0,3.0,46,0.00,,---,0.00,VWS V14.01,2013-04-16 21:25:00,
2013-04-16 13:30:00,21.2,4.1,30.48,NNE,22,0.0,3.0,47,0.00,,---,0.00,VWS V14.01,2013-04-16 21:30:00,
2013-04-16 13:35:00,21.7,4.1,30.48,NNE,22,0.0,1.0,46,0.00,,---,0.00,VWS V14.01,2013-04-16 21:35:00,
2013-04-16 13:40:00,22.6,4.5,30.48,NNE,22,0.0,0.0,45,0.00,,---,0.00,VWS V14.01,2013-04-16 21:40:00,
2013-04-16 13:45:00,24.7,5.9,30.48,NNE,22,0.0,0.0,44,0.00,,---,0.00,VWS V14.01,2013-04-16 21:45:00,
2013-04-16 13:50:00,26.0,4.4,30.48,NNE,22,0.0,1.0,39,0.00,,---,0.00,VWS V14.01,2013-04-16 21:50:00,
2013-04-16 13:55:00,25.7,4.7,30.48,NNE,22,1.0,4.0,40,0.00,,---,0.00,VWS V14.01,2013-04-16 21:55:00,
2013-04-16 14:00:00,24.0,4.2,30.48,ENE,68,2.0,4.0,42,0.00,,---,0.00,VWS V14.01,2013-04-16 22:00:00,
2013-04-16 14:05:00,22.9,4.3,30.48,ENE,68,0.0,1.0,44,0.00,,---,0.00,VWS V14.01,2013-04-16 22:05:00,
2013-04-16 14:10:00,22.6,4.9,30.48,ENE,68,0.0,2.0,46,0.00,,---,0.00,VWS V14.01,2013-04-16 22:10:00,
2013-04-16 14:15:00,22.2,5.1,30.48,ENE,68,0.0,2.0,47,0.00,,---,0.00,VWS V14.01,2013-04-16 22:15:00,
2013-04-16 14:20:00,22.6,5.4,30.47,ENE,68,0.0,2.0,47,0.00,,---,0.00,VWS V14.01,2013-04-16 22:20:00,
2013-04-16 14:25:00,22.8,5.1,30.47,ENE,68,1.0,4.0,46,0.00,,---,0.00,VWS V14.01,2013-04-16 22:25:00,
2013-04-16 14:30:00,23.1,4.9,30.47,ENE,68,0.0,3.0,45,0.00,,---,0.00,VWS V14.01,2013-04-16 22:30:00,
2013-04-16 14:35:00,23.3,4.6,30.47,ENE,68,0.0,0.0,44,0.00,,---,0.00,VWS V14.01,2013-04-16 22:35:00,
2013-04-16 14:40:00,23.6,5.4,30.47,ENE,68,0.0,1.0,45,0.00,,---,0.00,VWS V14.01,2013-04-16 22:40:00,
2013-04-16 14:45:00,24.1,5.8,30.47,ENE,68,0.0,3.0,45,0.00,,---,0.00,VWS V14.01,2013-04-16 22:45:00,
2013-04-16 14:50:00,23.6,5.4,30.47,ENE,68,0.0,2.0,45,0.00,,---,0.00,VWS V14.01,2013-04-16 22:50:00,
2013-04-16 14:55:00,24.0,5.8,30.47,ENE,68,0.0,1.0,45,0.00,,---,0.00,VWS V14.01,2013-04-16 22:55:00,
2013-04-16 15:00:00,24.2,5.4,30.47,ENE,68,1.0,3.0,44,0.00,,---,0.00,VWS V14.01,2013-04-16 23:00:00,
2013-04-16 15:05:00,24.3,6.0,30.47,ENE,68,1.0,4.0,45,0.00,,---,0.00,VWS V14.01,2013-04-16 23:05:00,
2013-04-16 15:10:00,24.6,6.3,30.47,ENE,68,1.0,3.0,45,0.00,,---,0.00,VWS V14.01,2013-04-16 23:10:00,
2013-04-16 15:15:00,24.9,6.1,30.46,ENE,68,0.0,3.0,44,0.00,,---,0.00,VWS V14.01,2013-04-16 23:15:00,
2013-04-16 15:20:00,24.5,4.2,30.46,ENE,68,0.0,1.0,41,0.00,,---,0.00,VWS V14.01,2013-04-16 23:20:00,
2013-04-16 15:25:00,24.3,4.5,30.46,ENE,68,0.0,0.0,42,0.00,,---,0.00,VWS V14.01,2013-04-16 23:25:00,
2013-04-16 15:30:00,24.4,4.6,30.46,ENE,68,0.0,1.0,42,0.00,,---,0.00,VWS V14.01,2013-04-16 23:30:00,
2013-04-16 15:35:00,24.9,4.5,30.46,ENE,68,0.0,2.0,41,0.00,,---,0.00,VWS V14.01,2013-04-16 23:35:00,
2013-04-16 15:40:00,25.4,4.5,30.46,ENE,68,0.0,2.0,40,0.00,,---,0.00,VWS V14.01,2013-04-16 23:40:00,
2013-04-16 15:45:00,25.6,5.2,30.46,ENE,68,0.0,2.0,41,0.00,,---,0.00,VWS V14.01,2013-04-16 23:45:00,
2013-04-16 15:50:00,25.7,5.3,30.46,ENE,68,1.0,3.0,41,0.00,,---,0.00,VWS V14.01,2013-04-16 23:50:00,
2013-04-16 15:55:00,25.6,5.7,30.46,ENE,68,1.0,3.0,42,0.00,,---,0.00,VWS V14.01,2013-04-16 23:55:00,
2013-04-16 16:00:00,25.4,5.5,30.46,ENE,68,1.0,3.0,42,0.00,,---,0.00,VWS V14.01,2013-04-17 00:00:00,
2013-04-16 16:05:00,24.2,5.4,30.46,ENE,68,1.0,3.0,44,0.00,,---,0.00,VWS V14.01,2013-04-17 00:05:00,
2013-04-16 16:10:00,23.7,5.5,30.46,ENE,68,0.0,2.0,45,0.00,,---,0.00,VWS V14.01,2013-04-17 00:10:00,
2013-04-16 16:15:00,23.5,6.2,30.45,ENE,68,1.0,2.0,47,0.00,,---,0.00,VWS V14.01,2013-04-17 00:15:00,
2013-04-16 16:20:00,23.7,5.5,30.45,ENE,68,0.0,1.0,45,0.00,,---,0.00,VWS V14.01,2013-04-17 00:20:00,
2013-04-16 16:25:00,24.5,5.7,30.45,ENE,68,0.0,2.0,44,0.00,,---,0.00,VWS V14.01,2013-04-17 00:25:00,
2013-04-16 16:30:00,24.7,5.9,30.45,ENE,68,0.0,2.0,44,0.00,,---,0.00,VWS V14.01,2013-04-17 00:30:00,
2013-04-16 16:35:00,24.2,5.4,30.45,ENE,68,0.0,2.0,44,0.00,,---,0.00,VWS V14.01,2013-04-17 00:35:00,
2013-04-16 16:40:00,24.2,4.9,30.45,ENE,68,0.0,2.0,43,0.00,,---,0.00,VWS V14.01,2013-04-17 00:40:00,
2013-04-16 16:45:00,24.8,5.5,30.45,ENE,68,0.0,2.0,43,0.00,,---,0.00,VWS V14.01,2013-04-17 00:45:00,
2013-04-16 16:50:00,24.9,5.1,30.45,ENE,68,0.0,2.0,42,0.00,,---,0.00,VWS V14.01,2013-04-17 00:50:00,
2013-04-16 16:55:00,24.7,6.4,30.45,ENE,68,0.0,3.0,45,0.00,,---,0.00,VWS V14.01,2013-04-17 00:55:00,
2013-04-16 17:00:00,24.6,6.3,30.45,ENE,68,0.0,2.0,45,0.00,,---,0.00,VWS V14.01,2013-04-17 01:00:00,
2013-04-16 17:05:00,24.4,6.6,30.45,ENE,68,1.0,3.0,46,0.00,,---,0.00,VWS V14.01,2013-04-17 01:05:00,
2013-04-16 17:10:00,24.2,7.3,30.45,ENE,68,1.0,3.0,48,0.00,,---,0.00,VWS V14.01,2013-04-17 01:10:00,
2013-04-16 17:15:00,23.9,7.5,30.45,ENE,68,1.0,3.0,49,0.00,,---,0.00,VWS V14.01,2013-04-17 01:15:00,
2013-04-16 17:20:00,23.9,7.5,30.45,ENE,68,1.0,4.0,49,0.00,,---,0.00,VWS V14.01,2013-04-17 01:20:00,
2013-04-16 17:25:00,23.8,7.9,30.44,ENE,68,0.0,3.0,50,0.00,,---,0.00,VWS V14.01,2013-04-17 01:25:00,
2013-04-16 17:30:00,24.0,8.5,30.44,ENE,68,0.0,1.0,51,0.00,,---,0.00,VWS V14.01,2013-04-17 01:30:00,
2013-04-16 17:35:00,24.3,7.9,30.44,ENE,68,0.0,1.0,49,0.00,,---,0.00,VWS V14.01,2013-04-17 01:35:00,
2013-04-16 17:40:00,24.6,7.7,30.44,ENE,68,0.0,3.0,48,0.00,,---,0.00,VWS V14.01,2013-04-17 01:40:00,
2013-04-16 17:45:00,24.6,7.7,30.44,ENE,68,0.0,3.0,48,0.00,,---,0.00,VWS V14.01,2013-04-17 01:45:00,
2013-04-16 17:50:00,24.2,7.8,30.44,ENE,68,0.0,1.0,49,0.00,,---,0.00,VWS V14.01,2013-04-17 01:50:00,
2013-04-16 17:55:00,24.1,8.2,30.44,ENE,68,0.0,1.0,50,0.00,,---,0.00,VWS V14.01,2013-04-17 01:55:00,
2013-04-16 18:00:00,24.1,8.2,30.44,ENE,68,0.0,2.0,50,0.00,,---,0.00,VWS V14.01,2013-04-17 02:00:00,
2013-04-16 18:05:00,24.2,8.3,30.44,ENE,68,1.0,3.0,50,0.00,,---,0.00,VWS V14.01,2013-04-17 02:05:00,
2013-04-16 18:10:00,24.0,8.1,30.43,ENE,68,0.0,2.0,50,0.00,,---,0.00,VWS V14.01,2013-04-17 02:10:00,
2013-04-16 18:15:00,23.9,7.5,30.43,ENE,68,1.0,3.0,49,0.00,,---,0.00,VWS V14.01,2013-04-17 02:15:00,
2013-04-16 18:20:00,23.6,7.7,30.44,ENE,68,1.0,3.0,50,0.00,,---,0.00,VWS V14.01,2013-04-17 02:20:00,
2013-04-16 18:25:00,23.6,7.7,30.44,ENE,68,1.0,3.0,50,0.00,,---,0.00,VWS V14.01,2013-04-17 02:25:00,
2013-04-16 18:30:00,22.9,7.5,30.44,ENE,68,2.0,4.0,51,0.00,,---,0.00,VWS V14.01,2013-04-17 02:30:00,
2013-04-16 18:35:00,22.8,8.2,30.44,ENE,68,1.0,3.0,53,0.00,,---,0.00,VWS V14.01,2013-04-17 02:35:00,
2013-04-16 18:40:00,23.0,8.9,30.44,ENE,68,1.0,3.0,54,0.00,,---,0.00,VWS V14.01,2013-04-17 02:40:00,
2013-04-16 18:45:00,23.3,8.7,30.44,ENE,68,1.0,5.0,53,0.00,,---,0.00,VWS V14.01,2013-04-17 02:45:00,
2013-04-16 18:50:00,23.4,8.8,30.44,East,90,3.0,6.0,53,0.00,,---,0.00,VWS V14.01,2013-04-17 02:50:00,
2013-04-16 18:55:00,23.6,9.0,30.44,ESE,112,2.0,6.0,53,0.00,,---,0.00,VWS V14.01,2013-04-17 02:55:00,
2013-04-16 19:00:00,23.7,9.1,30.44,ESE,112,1.0,5.0,53,0.00,,---,0.00,VWS V14.01,2013-04-17 03:00:00,
2013-04-16 19:05:00,23.3,8.3,30.43,ESE,112,0.0,4.0,52,0.00,,---,0.00,VWS V14.01,2013-04-17 03:05:00,
2013-04-16 19:10:00,23.1,8.5,30.43,ESE,112,0.0,4.0,53,0.00,,---,0.00,VWS V14.01,2013-04-17 03:10:00,
2013-04-16 19:15:00,23.2,7.8,30.43,ESE,112,0.0,0.0,51,0.00,,---,0.00,VWS V14.01,2013-04-17 03:15:00,
2013-04-16 19:20:00,23.1,7.7,30.43,ESE,112,0.0,1.0,51,0.00,,---,0.00,VWS V14.01,2013-04-17 03:20:00,
2013-04-16 19:25:00,23.0,7.6,30.43,ESE,112,0.0,2.0,51,0.00,,---,0.00,VWS V14.01,2013-04-17 03:25:00,
2013-04-16 19:30:00,23.3,7.9,30.43,ESE,112,0.0,2.0,51,0.00,,---,0.00,VWS V14.01,2013-04-17 03:30:00,
2013-04-16 19:35:00,23.5,7.6,30.43,ESE,112,0.0,0.0,50,0.00,,---,0.00,VWS V14.01,2013-04-17 03:35:00,
2013-04-16 19:40:00,23.1,6.8,30.42,ESE,112,0.0,0.0,49,0.00,,---,0.00,VWS V14.01,2013-04-17 03:40:00,
2013-04-16 19:45:00,22.4,6.6,30.42,ESE,112,0.0,2.0,50,0.00,,---,0.00,VWS V14.01,2013-04-17 03:45:00,
2013-04-16 19:50:00,22.0,6.7,30.42,ESE,112,0.0,1.0,51,0.00,,---,0.00,VWS V14.01,2013-04-17 03:50:00,
2013-04-16 19:55:00,21.6,6.7,30.42,ESE,112,0.0,1.0,52,0.00,,---,0.00,VWS V14.01,2013-04-17 03:55:00,
2013-04-16 20:00:00,21.1,6.7,30.42,ESE,112,0.0,2.0,53,0.00,,---,0.00,VWS V14.01,2013-04-17 04:00:00,
2013-04-16 20:05:00,20.9,6.5,30.42,ESE,112,0.0,0.0,53,0.00,,---,0.00,VWS V14.01,2013-04-17 04:05:00,
2013-04-16 20:10:00,20.9,6.9,30.42,ESE,112,0.0,0.0,54,0.00,,---,0.00,VWS V14.01,2013-04-17 04:10:00,
2013-04-16 20:15:00,20.9,7.3,30.42,ESE,112,0.0,0.0,55,0.00,,---,0.00,VWS V14.01,2013-04-17 04:15:00,
2013-04-16 20:20:00,20.7,7.1,30.42,ESE,112,0.0,0.0,55,0.00,,---,0.00,VWS V14.01,2013-04-17 04:20:00,
2013-04-16 20:25:00,20.5,9.2,30.42,ESE,112,0.0,1.0,61,0.00,,---,0.00,VWS V14.01,2013-04-17 04:25:00,
2013-04-16 20:30:00,20.3,7.5,30.42,ESE,112,0.0,0.0,57,0.00,,---,0.00,VWS V14.01,2013-04-17 04:30:00,
2013-04-16 20:35:00,20.1,7.3,30.42,ESE,112,0.0,0.0,57,0.00,,---,0.00,VWS V14.01,2013-04-17 04:35:00,
2013-04-16 20:40:00,20.0,7.6,30.42,ESE,112,0.0,0.0,58,0.00,,---,0.00,VWS V14.01,2013-04-17 04:40:00,
2013-04-16 20:45:00,19.7,7.7,30.42,ESE,112,0.0,0.0,59,0.00,,---,0.00,VWS V14.01,2013-04-17 04:45:00,
2013-04-16 20:50:00,19.5,7.1,30.42,ESE,112,0.0,0.0,58,0.00,,---,0.00,VWS V14.01,2013-04-17 04:50:00,
2013-04-16 20:55:00,19.6,6.8,30.42,ESE,112,0.0,1.0,57,0.00,,---,0.00,VWS V14.01,2013-04-17 04:55:00,
2013-04-16 21:00:00,19.2,6.9,30.42,ESE,112,0.0,0.0,58,0.00,,---,0.00,VWS V14.01,2013-04-17 05:00:00,
2013-04-16 21:05:00,18.9,6.9,30.42,ESE,112,0.0,0.0,59,0.00,,---,0.00,VWS V14.01,2013-04-17 05:05:00,
2013-04-16 21:10:00,18.5,6.6,30.42,ESE,112,0.0,0.0,59,0.00,,---,0.00,VWS V14.01,2013-04-17 05:10:00,
2013-04-16 21:15:00,18.0,6.5,30.42,ESE,112,0.0,0.0,60,0.00,,---,0.00,VWS V14.01,2013-04-17 05:15:00,
2013-04-16 21:20:00,17.4,5.9,30.42,ESE,112,0.0,0.0,60,0.00,,---,0.00,VWS V14.01,2013-04-17 05:20:00,
2013-04-16 21:25:00,16.9,5.8,30.43,ESE,112,0.0,0.0,61,0.00,,---,0.00,VWS V14.01,2013-04-17 05:25:00,
2013-04-16 21:30:00,16.6,5.5,30.42,ESE,112,0.0,0.0,61,0.00,,---,0.00,VWS V14.01,2013-04-17 05:30:00,
2013-04-16 21:35:00,16.3,5.9,30.43,ESE,112,0.0,0.0,63,0.00,,---,0.00,VWS V14.01,2013-04-17 05:35:00,
2013-04-16 21:40:00,16.0,5.3,30.43,ESE,112,0.0,0.0,62,0.00,,---,0.00,VWS V14.01,2013-04-17 05:40:00,
2013-04-16 21:45:00,15.4,4.0,30.43,ESE,112,0.0,2.0,60,0.00,,---,0.00,VWS V14.01,2013-04-17 05:45:00,
2013-04-16 21:50:00,14.5,3.2,30.43,ESE,112,0.0,0.0,60,0.00,,---,0.00,VWS V14.01,2013-04-17 05:50:00,
2013-04-16 21:55:00,13.5,2.6,30.43,ESE,112,0.0,1.0,61,0.00,,---,0.00,VWS V14.01,2013-04-17 05:55:00,
2013-04-16 22:00:00,12.5,2.0,30.43,ESE,112,0.0,0.0,62,0.00,,---,0.00,VWS V14.01,2013-04-17 06:00:00,
2013-04-16 22:05:00,11.7,1.9,30.43,ESE,112,0.0,0.0,64,0.00,,---,0.00,VWS V14.01,2013-04-17 06:05:00,
2013-04-16 22:10:00,10.9,1.5,30.43,ESE,112,0.0,0.0,65,0.00,,---,0.00,VWS V14.01,2013-04-17 06:10:00,
2013-04-16 22:15:00,10.1,0.7,30.43,ESE,112,0.0,0.0,65,0.00,,---,0.00,VWS V14.01,2013-04-17 06:15:00,
2013-04-16 22:20:00,9.1,0.1,30.43,ESE,112,0.0,0.0,66,0.00,,---,0.00,VWS V14.01,2013-04-17 06:20:00,
2013-04-16 22:25:00,7.9,-0.4,30.43,ESE,112,0.0,0.0,68,0.00,,---,0.00,VWS V14.01,2013-04-17 06:25:00,
2013-04-16 22:30:00,6.4,-1.0,30.43,ESE,112,0.0,2.0,71,0.00,,---,0.00,VWS V14.01,2013-04-17 06:30:00,
2013-04-16 22:35:00,5.8,-1.0,30.43,ESE,112,0.0,2.0,73,0.00,,---,0.00,VWS V14.01,2013-04-17 06:35:00,
2013-04-16 22:40:00,4.7,-1.8,30.43,ESE,112,1.0,2.0,74,0.00,,---,0.00,VWS V14.01,2013-04-17 06:40:00,
2013-04-16 22:45:00,3.7,-2.7,30.43,ESE,112,0.0,1.0,74,0.00,,---,0.00,VWS V14.01,2013-04-17 06:45:00,
2013-04-16 22:50:00,2.9,-2.9,30.44,ESE,112,0.0,0.0,76,0.00,,---,0.00,VWS V14.01,2013-04-17 06:50:00,
2013-04-16 22:55:00,2.1,-3.7,30.43,ESE,112,2.0,4.0,76,0.00,,---,0.00,VWS V14.01,2013-04-17 06:55:00,
2013-04-16 23:00:00,1.5,-4.0,30.43,ESE,112,1.0,2.0,77,0.00,,---,0.00,VWS V14.01,2013-04-17 07:00:00,
2013-04-16 23:05:00,1.1,-4.1,30.43,ESE,112,1.0,2.0,78,0.00,,---,0.00,VWS V14.01,2013-04-17 07:05:00,
2013-04-16 23:10:00,0.5,-4.5,30.43,ESE,112,1.0,4.0,79,0.00,,---,0.00,VWS V14.01,2013-04-17 07:10:00,
2013-04-16 23:15:00,-0.1,-5.1,30.43,ESE,112,3.0,5.0,79,0.00,,---,0.00,VWS V14.01,2013-04-17 07:15:00,
2013-04-16 23:20:00,-0.1,-4.5,30.43,ESE,112,1.0,4.0,81,0.00,,---,0.00,VWS V14.01,2013-04-17 07:20:00,
2013-04-16 23:25:00,0.1,-4.3,30.43,ESE,112,0.0,1.0,81,0.00,,---,0.00,VWS V14.01,2013-04-17 07:25:00,
2013-04-16 23:30:00,-0.1,-4.5,30.43,ESE,112,0.0,2.0,81,0.00,,---,0.00,VWS V14.01,2013-04-17 07:30:00,
2013-04-16 23:35:00,-0.5,-5.2,30.43,ESE,112,0.0,1.0,80,0.00,,---,0.00,VWS V14.01,2013-04-17 07:35:00,
2013-04-16 23:40:00,-1.0,-5.4,30.43,ESE,112,1.0,2.0,81,0.00,,---,0.00,VWS V14.01,2013-04-17 07:40:00,
2013-04-16 23:45:00,-1.0,-5.2,30.43,ESE,112,1.0,2.0,82,0.00,,---,0.00,VWS V14.01,2013-04-17 07:45:00,
2013-04-16 23:50:00,-1.1,-5.3,30.43,ESE,112,0.0,2.0,82,0.00,,---,0.00,VWS V14.01,2013-04-17 07:50:00,
2013-04-16 23:55:00,-0.9,-4.8,30.43,ESE,112,0.0,2.0,83,0.00,,---,0.00,VWS V14.01,2013-04-17 07:55:00,